Kezdőlap
METAR-TAF:

METAR-TAF

Repülőterek :

Enfidha-Hammamet

Hammamet, Tunézia

földrajzi szélesség: 36-04-34N, földrajzi hosszúság: 10-26-19E, magasság: 6 m

Jelenlegi meteorológiai megfigyelések

A jelentés 36 perccel ezelõtt készült, 12:30 UTC
Déli szél 7 kt, dél-délkeleti és dél-délnyugati között változik
Hőmérséklet 20°C
Páratartalom 43%
Légköri nyomás 1019 hPa
Látótávolság 10 km, vagy több
felhőtlen 1500 m magasságban, és nincs gomolyfelhõ

METAR: DTNH 151230Z 19007KT 150V210 CAVOK 20/07 Q1019

Idő: 14:06 (13:06 UTC)

Előrejelzés

A jelentés 2 órával és 6 perccel ezelõtt készült, 11:00 UTC
Az előrejelzés 15-én 12 óra UTC és 16-én 12 óra UTC között érvényes
Déli szél 7 kt
Látótávolság 10 km, vagy több
felhőtlen 1500 m magasságban, és nincs gomolyfelhõ
16-én 08 óra UTC és 16-én 10 óra UTC között fokozatosan kialakuló
Déli szél 14 kt

TAF: DTNH 151100Z 1512/1612 18007KT CAVOK BECMG 1608/1610 19014KT

Meteorológiai megfigyelések és előrejelzések több, mint 4000 repülőtéren (METAR és TAF jelentéseket).

A térképen piros és sárga pontok jelzik az elérhető meteorológiai állomásokat.

Mozgassa az egeret a pont fölött, hogy megjelenjen az állomás neve.

Azután kattintson az időjárási megfigyelések és előrejelzések megtekintéséhez.

A térkép megváltoztatása: kattintson a fekete keresztel jelölt zöld gombra ráközelítéshez, a vonallal jelölt zöld gombra távolításhoz, vagy a zöld nyilakra a szomszédos térképek eléréséhez.


METAR-TAF: